Detalhes do Voo

Voltar

 DETALHES DO VÔO

Piloto: GLD1054 Carlos V. Aeronave: 320_JARDESIGN AIRBUS OLD HOUSE COLOURS Distância: 177NM
Origem: SBCT Destino: SBLO Duração: 0.57
Validação: Validado Tipo: Regular Matrícula: PR-GQH
ZFW: 56101 Block Fuel/Init FOB 1,823/0 Combustível em Voo 1,577
Passageiros: 160 Carga: 13855 Alternativo: SBBU
Hora da Decolagem: Velocidade de Cruzeiro: N0420 Nível de Voo: FL260
Regra Visual: IFR ICAO da Aeronave: A320 Unidade de Peso: Kg
Data: 01/08/2019 Observação: Rede: IVAO
Acidentou?: Não Comentários do Validador: Pontuação do Voo 99.75

 ROTA

ROTA PORK1B GEGOB UZ63 LON DCT
REMARKS OPR/GOLD VIRTUAL AIRLINES PER/C RMK/FROM SBCT /PIC GLD1054 /WWW.GOLDVIRTUAL.COM.BR PBN/A1B1C1D1O1S1

 PENALIDADES DO VOO

Para entender como cada item é pontuado, consulte as regras de avaliação.

Nenhuma penalidade registrada para este voo.

 ANÁLISE DO POUSO

Vento durante o pouso: 0º/0 kt Proa durante o pouso: 20
V/S do Pouso: -489.82 ft/min IAS do Pouso: 153.91 kt
Força G no pouso: 2 G Bank no pouso: -1.5
Pitch no Pouso -1 Flaps no Pouso 40
Nav Lights ON Landing Lights ON
Beacon Lights ON Strobe Lights ON

 MAPA DO VOO

 PERFIL VERTICAL DO VOO

 EVENTOS PRINCIPAIS DO VOO

DATAEVENTOIASALTITUDE
2019-08-02 00:29:16 SIM ACARS version 1.4.002994
2019-08-02 00:29:16 BOARDING02994
2019-08-02 00:38:14 STARTING ENGINE 1 52995
2019-08-02 00:38:16 STARTING ENGINE 2 52995
2019-08-02 00:38:29 FLAPS EXTENSION 40 % 52995
2019-08-02 00:38:30 FLAPS EXTENSION 60 % 52995
2019-08-02 00:41:46 TAXI TO THE RWY 52996
2019-08-02 00:43:38 ROLLING FOR TAKE OFF442992
2019-08-02 00:44:08 TAKE OFF1472983
2019-08-02 00:44:14 GEAR UP1613040
2019-08-02 00:45:12 FLAPS EXTENSION 40 % 1675129
2019-08-02 00:45:33 FLAPS EXTENSION 0 % 1995262
2019-08-02 00:56:48 CRUISE33026351
2019-08-02 01:00:58 DESCEND32926211
2019-08-02 01:07:44 FLAPS EXTENSION 20 % 22210779
2019-08-02 01:07:59 FLAPS EXTENSION 40 % 21010656
2019-08-02 01:08:27 FLAPS EXTENSION 60 % 17910523
2019-08-02 01:08:41 FLAPS EXTENSION 80 % 16910462
2019-08-02 01:08:58 FLAPS EXTENSION 100 % 14910352
2019-08-02 01:10:08 CRUISE14010090
2019-08-02 01:10:38 DESCEND1419826
2019-08-02 01:11:08 LIGHTS OFF BELOW 10000 ft1409499
2019-08-02 01:17:36 GEAR DOWN1442917
2019-08-02 01:19:10 LANDING1541830
2019-08-02 01:19:34 TAXI TO THE GATE201869
2019-08-02 01:19:55 TAXI SPEED ABOVE 25 KTS231869
2019-08-02 01:21:08 FLAPS EXTENSION 80 % 01869
2019-08-02 01:21:09 FLAPS EXTENSION 60 % 01869
2019-08-02 01:21:09 FLAPS EXTENSION 40 % 01869
2019-08-02 01:21:09 FLAPS EXTENSION 0 % 01869
2019-08-02 01:21:46 STOPPING ENGINE 1 01869
2019-08-02 01:21:47 STOPPING ENGINE 2 01869

 DADOS DO ACARS

DATA IAS GS ALTITUDE COMBUSTÍVEL USADO OAT FASE DO VOO
2019-08-02 00:30:16 0 0 2993 2 17 BOARDING
2019-08-02 00:31:16 0 0 2993 4 17 BOARDING
2019-08-02 00:32:16 0 0 2993 6 17 BOARDING
2019-08-02 00:33:16 0 0 2993 7 17 BOARDING
2019-08-02 00:34:16 0 0 2993 9 17 BOARDING
2019-08-02 00:35:16 0 0 2993 11 17 BOARDING
2019-08-02 00:36:16 0 0 2994 13 17 BOARDING
2019-08-02 00:37:16 1 0 2994 15 17 BOARDING
2019-08-02 00:38:16 5 0 2995 16 17 BOARDING
2019-08-02 00:39:16 5 0 2995 23 17 BOARDING
2019-08-02 00:40:16 8 3 2995 33 17 BOARDING
2019-08-02 00:41:16 0 0 2995 45 17 BOARDING
2019-08-02 00:42:16 16 23 2995 67 17 TAXI TO THE RWY
2019-08-02 00:43:16 4 0 2989 83 17 TAXI TO THE RWY
2019-08-02 00:44:16 161 167 3094 215 17 CLIMBING
2019-08-02 00:45:16 170 173 5165 314 9 CLIMBING
2019-08-02 00:46:16 244 250 6534 393 5 CLIMBING
2019-08-02 00:47:16 244 260 9479 477 3 CLIMBING
2019-08-02 00:48:16 300 329 10772 560 1 CLIMBING
2019-08-02 00:49:16 339 379 12533 647 0 CLIMBING
2019-08-02 00:50:16 339 394 15226 736 -6 CLIMBING
2019-08-02 00:51:16 339 407 17663 825 -12 CLIMBING
2019-08-02 00:52:16 339 421 19818 913 -17 CLIMBING
2019-08-02 00:53:16 339 432 21768 996 -22 CLIMBING
2019-08-02 00:54:16 339 449 23413 1078 -26 CLIMBING
2019-08-02 00:55:16 339 457 24904 1152 -30 CLIMBING
2019-08-02 00:56:16 325 447 26357 1211 -34 CLIMBING
2019-08-02 00:57:16 329 451 26346 1253 -34 CRUISE
2019-08-02 00:58:16 329 451 26346 1289 -34 CRUISE
2019-08-02 00:59:16 329 451 26347 1323 -33 CRUISE
2019-08-02 01:00:16 329 451 26346 1358 -33 CRUISE
2019-08-02 01:01:16 329 447 25994 1391 -33 DESCEND
2019-08-02 01:02:16 341 455 24302 1426 -28 DESCEND
2019-08-02 01:03:16 339 431 21158 1436 -21 DESCEND
2019-08-02 01:04:16 339 414 18148 1459 -13 DESCEND
2019-08-02 01:05:16 315 369 15242 1470 -5 DESCEND
2019-08-02 01:06:16 284 322 12746 1473 0 DESCEND
2019-08-02 01:07:16 249 271 11057 1476 2 DESCEND
2019-08-02 01:08:16 187 196 10647 1479 2 DESCEND
2019-08-02 01:09:16 137 137 10263 1494 3 DESCEND
2019-08-02 01:10:16 140 140 10061 1534 3 CRUISE
2019-08-02 01:11:16 140 138 9418 1564 4 DESCEND
2019-08-02 01:12:16 140 136 8786 1594 4 DESCEND
2019-08-02 01:13:16 154 156 7762 1621 5 DESCEND
2019-08-02 01:14:16 167 185 5225 1626 9 DESCEND
2019-08-02 01:15:16 139 137 4215 1644 12 DESCEND
2019-08-02 01:16:16 142 145 3722 1678 14 DESCEND
2019-08-02 01:17:16 143 147 3167 1709 16 DESCEND
2019-08-02 01:18:16 143 149 2507 1741 20 DESCEND
2019-08-02 01:19:16 136 139 1848 1776 24 LANDED
2019-08-02 01:20:16 10 10 1869 1805 24 TAXI TO THE GATE
2019-08-02 01:21:16 0 0 1868 1818 24 TAXI TO THE GATE
2019-08-02 01:22:16 0 0 1868 1823 24 TAXI TO THE GATE